Time;durP1;ratioP1;P1;durP2;ratioP2;P2;SDS_P1;SDS_P2;PMS_P1;PMS_P2;Temp;Humidity;BMP_temperature;BMP_pressure;BME280_temperature;BME280_humidity;BME280_pressure;Samples;Min_cycle;Max_cycle;Signal;HPM_P1;HPM_P2
2022/01/18 00:00:28;;;;;;;10.70;10.20;;;;;;;2.62;74.41;92885.22;5006657;28;20214;-77
2022/01/18 00:02:54;;;;;;;9.43;8.93;;;;;;;2.45;75.75;92899.78;5008975;28;20210;-76
2022/01/18 00:05:20;;;;;;;12.97;12.37;;;;;;;2.37;75.11;92882.06;5008631;28;20199;-76
2022/01/18 07:06:54;;;;;;;11.43;10.93;;;;;;;-1.27;60.90;93534.81;5083443;27;20595;-79
2022/01/18 07:09:23;;;;;;;11.57;10.97;;;;;;;-1.39;59.44;93487.66;5051626;28;20194;-82
2022/01/18 07:11:54;;;;;;;11.27;10.63;;;;;;;-1.23;60.56;93510.44;5050642;28;20225;-83
2022/01/18 07:14:19;;;;;;;11.43;10.73;;;;;;;-1.23;59.26;93541.19;5047085;28;20196;-79
2022/01/18 07:16:45;;;;;;;10.63;10.13;;;;;;;-1.23;58.89;93548.88;5048814;28;20249;-74
2022/01/18 07:19:10;;;;;;;12.37;11.73;;;;;;;-1.27;58.51;93547.63;5051044;28;20186;-74
2022/01/18 07:21:36;;;;;;;11.83;11.23;;;;;;;-1.12;58.78;93567.06;5051180;28;20767;-74
2022/01/18 07:24:14;;;;;;;12.83;12.23;;;;;;;-1.18;59.94;93551.66;5054846;28;20245;-77
2022/01/18 07:26:39;;;;;;;11.87;11.37;;;;;;;-1.17;59.83;93583.97;5048489;28;20229;-79
2022/01/18 07:29:05;;;;;;;13.90;13.23;;;;;;;-1.15;58.68;93605.09;5047036;28;20199;-81
2022/01/18 07:31:30;;;;;;;11.67;10.70;;;;;;;-1.24;59.14;93578.00;5050451;28;20265;-83
2022/01/18 07:33:56;;;;;;;11.77;10.87;;;;;;;-1.09;57.66;93588.97;5053550;28;20201;-86
2022/01/18 07:36:21;;;;;;;13.43;12.83;;;;;;;-1.18;58.31;93572.94;5050486;28;20276;-79
2022/01/18 07:38:46;;;;;;;11.10;10.50;;;;;;;-0.95;61.51;93570.19;5047547;28;20185;-84
2022/01/18 07:41:12;;;;;;;11.80;11.00;;;;;;;-0.98;58.97;93585.94;5049811;28;20230;-83
2022/01/18 07:43:40;;;;;;;12.93;12.17;;;;;;;-0.79;59.87;93580.13;5050839;28;20205;-85
2022/01/18 07:46:05;;;;;;;12.13;11.63;;;;;;;-0.79;58.71;93598.06;5045686;28;20271;-82
2022/01/18 07:48:31;;;;;;;11.20;10.70;;;;;;;-1.15;57.13;93552.06;5035136;28;20217;-83
2022/01/18 07:50:58;;;;;;;13.17;12.30;;;;;;;-1.11;57.66;93555.88;5051911;28;20274;-82
2022/01/18 07:53:25;;;;;;;12.70;12.07;;;;;;;-0.93;58.52;93581.00;5052730;28;20192;-83
2022/01/18 07:55:51;;;;;;;12.63;11.67;;;;;;;-1.05;57.62;93572.25;5051546;28;20229;-81
2022/01/18 07:58:17;;;;;;;11.83;11.00;;;;;;;-1.13;58.27;93580.88;5034370;28;20206;-84
2022/01/18 08:00:42;;;;;;;12.90;12.20;;;;;;;0.23;57.54;93616.06;5033590;28;20221;-82
2022/01/18 08:03:08;;;;;;;10.77;10.13;;;;;;;-0.81;56.95;93549.56;5048949;28;20228;-85
2022/01/18 08:05:34;;;;;;;15.13;14.27;;;;;;;-0.88;59.41;93574.38;5049716;28;20233;-85
2022/01/18 08:08:00;;;;;;;12.67;11.77;;;;;;;-0.82;59.74;93596.69;5051147;28;20198;-84
2022/01/18 08:10:30;;;;;;;13.13;12.37;;;;;;;-0.57;60.43;93607.31;5052635;28;20174;-84
2022/01/18 08:12:57;;;;;;;12.77;11.97;;;;;;;-0.72;58.52;93614.31;5047509;28;20258;-85
2022/01/18 08:15:23;;;;;;;12.30;11.50;;;;;;;-0.21;58.87;93631.84;5049884;28;20213;-86
2022/01/18 08:17:50;;;;;;;11.90;11.30;;;;;;;-0.26;57.59;93633.38;5038138;28;20193;-79
2022/01/18 08:20:16;;;;;;;12.13;11.47;;;;;;;-0.57;57.57;93609.88;5037611;28;20194;-84
2022/01/18 08:22:46;;;;;;;11.50;10.90;;;;;;;-0.86;57.98;93572.41;5022862;28;20217;-85
2022/01/18 08:25:13;;;;;;;9.93;9.43;;;;;;;-0.52;57.87;93643.44;5039609;28;20244;-84
2022/01/18 08:27:41;;;;;;;12.10;11.43;;;;;;;-0.44;57.59;93625.38;5039590;28;20231;-82
2022/01/18 08:30:10;;;;;;;11.23;10.63;;;;;;;-0.55;56.87;93642.06;5034924;28;20254;-82
2022/01/18 08:32:36;;;;;;;12.50;11.67;;;;;;;-0.45;57.18;93646.88;5024396;28;20241;-83
2022/01/18 08:35:02;;;;;;;11.57;10.87;;;;;;;-0.39;57.29;93639.19;5037157;28;20194;-85
2022/01/18 08:37:28;;;;;;;11.70;11.03;;;;;;;-0.86;57.04;93556.25;5035531;28;20218;-83
2022/01/18 08:39:53;;;;;;;10.40;9.90;;;;;;;-0.04;56.67;93653.66;5037350;28;20190;-85
2022/01/18 08:42:19;;;;;;;12.73;11.77;;;;;;;-0.26;55.89;93651.31;5035428;28;20215;-84
2022/01/18 08:44:45;;;;;;;12.43;11.53;;;;;;;-0.31;56.07;93630.56;5033055;28;20321;-85
2022/01/18 08:47:15;;;;;;;14.13;13.30;;;;;;;-0.11;55.47;93654.59;5037085;28;20226;-86
2022/01/18 08:49:41;;;;;;;12.83;12.13;;;;;;;-0.13;55.39;93646.28;5032602;28;20327;-85
2022/01/18 08:52:07;;;;;;;11.30;10.70;;;;;;;-0.07;54.84;93658.34;5036124;28;20222;-84
2022/01/18 08:54:34;;;;;;;13.43;12.67;;;;;;;0.00;54.95;93661.78;5036288;28;20249;-82
2022/01/18 08:57:00;;;;;;;12.53;11.80;;;;;;;0.04;55.37;93645.00;5037389;28;20231;-82
2022/01/18 08:59:25;;;;;;;12.17;11.47;;;;;;;0.28;53.96;93647.06;5041258;28;20178;-79
2022/01/18 09:01:51;;;;;;;11.33;10.67;;;;;;;0.14;53.76;93663.41;5036806;28;20228;-81
2022/01/18 09:04:18;;;;;;;10.53;9.93;;;;;;;0.41;53.86;93680.53;5034770;28;20190;-80
2022/01/18 09:06:47;;;;;;;10.90;10.40;;;;;;;0.17;54.63;93654.53;5035211;28;20310;-82
2022/01/18 09:09:15;;;;;;;13.07;12.37;;;;;;;0.09;53.23;93665.75;5036417;28;20229;-80
2022/01/18 09:11:40;;;;;;;10.77;10.27;;;;;;;0.17;54.36;93660.47;5016907;28;20222;-83
2022/01/18 09:14:05;;;;;;;12.50;11.67;;;;;;;0.19;55.07;93655.91;5032136;28;20247;-83
2022/01/18 09:16:31;;;;;;;12.37;11.50;;;;;;;0.15;53.65;93641.91;5035795;28;20230;-85
2022/01/18 09:18:56;;;;;;;12.70;11.90;;;;;;;0.37;55.83;93647.72;5037961;28;20174;-77
2022/01/18 09:21:22;;;;;;;12.07;11.47;;;;;;;0.55;53.20;93677.03;5037361;28;20227;-78
2022/01/18 09:23:48;;;;;;;12.60;11.90;;;;;;;0.53;52.94;93673.84;5034061;28;20222;-78
2022/01/18 09:26:13;;;;;;;12.37;11.60;;;;;;;0.17;53.40;93649.41;5031745;28;20230;-79
2022/01/18 09:28:40;;;;;;;12.00;11.33;;;;;;;0.18;53.30;93676.66;5036916;28;20203;-78
2022/01/18 09:31:05;;;;;;;12.07;11.50;;;;;;;0.25;54.04;93674.94;5032698;28;20231;-78
2022/01/18 09:33:31;;;;;;;13.00;12.03;;;;;;;0.22;54.17;93658.09;5036382;28;20213;-76
2022/01/18 09:35:57;;;;;;;12.10;11.33;;;;;;;0.12;56.43;93674.84;5035503;28;20276;-81
2022/01/18 09:38:22;;;;;;;11.33;10.47;;;;;;;0.16;55.29;93666.56;5036035;28;20201;-79
2022/01/18 09:40:49;;;;;;;11.80;10.90;;;;;;;0.30;56.15;93665.66;5040299;28;20226;-79
2022/01/18 09:43:16;;;;;;;13.97;13.03;;;;;;;-0.06;56.05;93641.97;5016910;28;20284;-82
2022/01/18 09:45:43;;;;;;;11.37;10.60;;;;;;;0.32;56.59;93648.28;5032063;28;20235;-79
2022/01/18 09:48:10;;;;;;;11.90;11.30;;;;;;;0.38;56.25;93652.66;5033643;28;20206;-79
2022/01/18 09:50:38;;;;;;;11.83;11.23;;;;;;;0.30;55.87;93642.53;5033612;28;20238;-79
2022/01/18 09:53:06;;;;;;;12.30;11.50;;;;;;;0.21;55.29;93630.88;5036970;28;20206;-82
2022/01/18 09:55:34;;;;;;;13.47;12.60;;;;;;;0.24;54.89;93652.78;5021994;28;20205;-84
2022/01/18 09:58:01;;;;;;;13.57;12.67;;;;;;;0.09;55.17;93657.25;5037368;28;20226;-83
2022/01/18 10:00:29;;;;;;;11.97;11.37;;;;;;;0.13;55.49;93658.44;5034763;28;20240;-80
2022/01/18 10:02:55;;;;;;;12.70;11.97;;;;;;;0.26;55.50;93646.50;5037104;28;20260;-73
2022/01/18 10:05:27;;;;;;;12.47;11.70;;;;;;;0.30;55.90;93654.59;5034658;28;20227;-80
2022/01/18 10:08:15;;;;;;;10.70;10.10;;;;;;;0.62;55.65;93677.88;5037150;28;20198;-83
2022/01/18 10:10:49;;;;;;;11.43;10.83;;;;;;;0.64;53.22;93670.72;5036857;28;20241;-81
2022/01/18 10:13:19;;;;;;;11.07;10.57;;;;;;;0.28;54.20;93671.97;5034559;28;20178;-81
2022/01/18 10:16:05;;;;;;;14.87;13.77;;;;;;;0.18;54.81;93669.75;5029154;28;20222;-87
2022/01/18 10:18:55;;;;;;;13.17;12.17;;;;;;;0.37;54.56;93673.41;5035583;28;20198;-82
2022/01/18 10:21:46;;;;;;;11.73;11.13;;;;;;;-0.07;54.86;93627.56;5036994;28;20236;-85
2022/01/18 10:24:17;;;;;;;11.53;10.83;;;;;;;0.19;54.92;93662.84;5036551;28;20202;-82
2022/01/18 10:26:44;;;;;;;11.60;10.70;;;;;;;0.12;54.59;93665.38;5034542;28;20234;-83
2022/01/18 10:29:12;;;;;;;11.80;11.03;;;;;;;0.40;55.31;93660.97;5035113;28;20205;-83
2022/01/18 10:32:10;;;;;;;12.90;11.80;;;;;;;0.21;55.25;93601.81;5035976;28;20238;-87
2022/01/18 10:37:21;;;;;;;12.17;11.37;;;;;;;0.17;55.42;93621.97;5036068;28;20225;-86
2022/01/18 10:39:54;;;;;;;12.57;11.77;;;;;;;0.54;55.27;93639.50;5037260;28;20210;-85
2022/01/18 10:42:25;;;;;;;11.90;11.13;;;;;;;0.28;55.64;93600.09;5036570;28;20222;-83
2022/01/18 10:45:06;;;;;;;12.70;12.00;;;;;;;-0.05;55.48;93558.88;5033126;28;20210;-88
2022/01/18 10:47:33;;;;;;;11.87;11.13;;;;;;;0.56;56.99;93616.94;5033884;28;20214;-86
2022/01/18 10:50:12;;;;;;;11.27;10.57;;;;;;;0.24;57.29;93558.59;5031843;28;21919;-76
2022/01/18 10:52:39;;;;;;;11.83;11.03;;;;;;;0.53;55.40;93614.78;5031572;28;20218;-85
2022/01/18 10:55:05;;;;;;;11.50;10.90;;;;;;;0.48;55.45;93637.69;5036712;28;20190;-89
2022/01/18 10:57:38;;;;;;;11.07;10.47;;;;;;;0.26;56.24;93633.66;5033526;28;20278;-83
2022/01/18 11:00:09;;;;;;;11.10;10.57;;;;;;;0.33;55.97;93616.47;5038046;28;20179;-86
2022/01/18 11:02:39;;;;;;;11.83;11.10;;;;;;;0.24;55.99;93638.19;5033488;28;20206;-83
2022/01/18 11:05:20;;;;;;;12.30;11.37;;;;;;;0.32;56.56;93645.72;5033601;28;20234;-83
2022/01/18 11:07:47;;;;;;;10.90;10.20;;;;;;;0.56;56.52;93639.31;5035147;28;20305;-81
2022/01/18 11:10:15;;;;;;;10.87;10.37;;;;;;;0.39;55.29;93589.25;5033899;28;20202;-88
2022/01/18 11:12:48;;;;;;;11.87;11.20;;;;;;;-0.13;53.89;93548.78;5032374;28;20222;-84
2022/01/18 11:15:16;;;;;;;11.87;11.03;;;;;;;0.01;54.48;93570.94;5031478;28;21042;-81
2022/01/18 11:17:49;;;;;;;11.30;10.60;;;;;;;0.35;54.60;93629.94;5011266;28;20226;-82
2022/01/18 11:20:16;;;;;;;12.20;11.30;;;;;;;0.32;54.91;93620.03;5013181;28;20207;-78
2022/01/18 11:22:42;;;;;;;12.73;11.83;;;;;;;0.41;54.75;93618.09;5030919;28;20218;-81
2022/01/18 11:25:08;;;;;;;12.53;11.83;;;;;;;0.54;55.26;93618.94;5030411;28;20210;-77
2022/01/18 11:27:35;;;;;;;11.87;11.20;;;;;;;0.33;55.74;93595.94;5030251;28;20264;-79
2022/01/18 11:30:01;;;;;;;12.87;11.30;;;;;;;0.74;54.84;93624.91;5030113;28;20259;-77
2022/01/18 11:32:28;;;;;;;13.73;12.80;;;;;;;0.38;54.79;93580.75;5031408;28;20323;-79
2022/01/18 11:35:10;;;;;;;13.00;12.00;;;;;;;0.80;55.39;93634.41;5035929;28;20186;-78
2022/01/18 11:37:54;;;;;;;12.60;11.67;;;;;;;1.43;53.10;93635.69;5034787;28;20234;-78
2022/01/18 11:40:20;;;;;;;10.23;9.57;;;;;;;0.66;54.65;93627.66;5036294;28;20190;-78
2022/01/18 11:42:54;;;;;;;12.13;11.43;;;;;;;0.46;54.66;93637.09;5033201;28;20274;-79
2022/01/18 11:45:26;;;;;;;11.80;10.80;;;;;;;0.46;54.41;93642.22;5037779;28;20244;-79
2022/01/18 11:48:05;;;;;;;12.33;11.53;;;;;;;0.50;54.94;93635.72;5033370;28;20243;-78
2022/01/18 11:50:37;;;;;;;12.77;11.77;;;;;;;0.36;54.16;93610.97;5033108;28;20278;-78
2022/01/18 11:53:26;;;;;;;11.50;10.73;;;;;;;0.62;54.55;93621.34;5036096;28;20205;-79
2022/01/18 11:56:01;;;;;;;12.70;11.87;;;;;;;0.66;56.51;93596.84;5036708;28;20234;-79
2022/01/18 11:58:28;;;;;;;10.87;10.27;;;;;;;0.69;53.89;93629.03;5039061;28;20192;-80
2022/01/18 12:01:00;;;;;;;14.90;13.80;;;;;;;0.52;53.59;93607.25;5037256;28;20218;-80
2022/01/18 12:03:48;;;;;;;12.37;11.43;;;;;;;0.55;54.59;93630.00;5038419;28;20182;-78
2022/01/18 12:06:15;;;;;;;15.57;13.73;;;;;;;0.58;53.86;93630.41;5036135;28;20229;-79
2022/01/18 12:08:45;;;;;;;12.93;12.13;;;;;;;0.44;54.46;93633.91;5037295;28;20189;-78
2022/01/18 12:11:25;;;;;;;12.87;12.07;;;;;;;0.46;53.67;93647.38;5038155;28;20218;-79
2022/01/18 12:13:59;;;;;;;13.07;11.97;;;;;;;0.56;54.00;93609.25;5057430;28;20664;-85
2022/01/18 12:16:29;;;;;;;13.37;12.27;;;;;;;0.49;53.44;93629.00;5037920;28;20215;-83
2022/01/18 12:19:05;;;;;;;11.83;10.87;;;;;;;0.62;53.54;93625.69;5035725;28;20217;-88
2022/01/18 12:21:32;;;;;;;12.70;11.97;;;;;;;0.53;54.44;93609.63;5036331;28;20223;-89
2022/01/18 12:24:13;;;;;;;12.23;11.50;;;;;;;0.65;53.24;93615.81;5037425;28;20195;-83
2022/01/18 12:26:46;;;;;;;12.07;11.47;;;;;;;0.62;52.70;93635.94;5037819;28;20300;-81
2022/01/18 12:34:29;;;;;;;12.47;11.77;;;;;;;0.58;51.76;93625.25;5039179;28;20194;-83
2022/01/18 12:39:58;;;;;;;12.40;11.60;;;;;;;0.60;51.76;93612.22;5035873;28;20206;-82
2022/01/18 12:45:07;;;;;;;10.70;10.10;;;;;;;0.68;50.38;93618.00;5036856;28;20244;-81
2022/01/18 12:47:35;;;;;;;12.27;11.23;;;;;;;3.51;63.81;93615.22;5035618;28;20240;-81
2022/01/18 12:50:03;;;;;;;11.67;10.97;;;;;;;0.81;49.59;93576.88;5036269;28;20197;-81
2022/01/18 12:52:54;;;;;;;13.00;11.97;;;;;;;0.77;50.04;93619.38;5038402;28;20248;-83
2022/01/18 12:55:46;;;;;;;13.37;12.43;;;;;;;0.89;50.61;93622.16;5035474;28;20195;-81
2022/01/18 12:58:17;;;;;;;11.30;10.60;;;;;;;0.55;49.42;93570.91;5036175;28;20801;-84
2022/01/18 13:00:49;;;;;;;11.57;10.77;;;;;;;0.80;49.94;93634.41;5036759;28;20260;-78
2022/01/18 13:03:17;;;;;;;11.33;10.73;;;;;;;0.58;49.93;93607.28;5035587;28;20171;-80
2022/01/18 13:05:44;;;;;;;10.60;9.70;;;;;;;0.75;50.43;93597.44;5038183;28;20284;-80
2022/01/18 13:08:11;;;;;;;12.10;11.10;;;;;;;0.82;50.81;93622.19;5036754;28;20179;-80
2022/01/18 13:10:40;;;;;;;11.80;10.80;;;;;;;0.83;49.76;93628.88;5037187;28;20711;-81
2022/01/18 13:13:07;;;;;;;11.83;11.13;;;;;;;0.69;49.45;93629.84;5037931;28;20250;-79
2022/01/18 13:26:37;;;;;;;11.43;10.63;;;;;;;-0.05;52.83;93605.06;5034439;28;20306;-83
2022/01/18 13:29:09;;;;;;;14.13;12.83;;;;;;;0.03;53.30;93640.84;5034909;28;20183;-79
2022/01/18 13:31:35;;;;;;;12.07;11.20;;;;;;;-0.01;52.04;93673.00;5034662;28;20226;-79
2022/01/18 13:34:01;;;;;;;12.33;11.63;;;;;;;0.00;52.28;93666.91;5034789;28;20178;-81
2022/01/18 13:36:29;;;;;;;12.77;12.07;;;;;;;0.14;52.26;93663.41;5036054;28;20218;-84
2022/01/18 13:38:55;;;;;;;13.47;12.47;;;;;;;0.03;52.48;93659.59;5035512;28;20720;-79
2022/01/18 13:41:21;;;;;;;11.90;11.20;;;;;;;0.18;52.82;93664.63;5036740;28;20222;-80
2022/01/18 13:43:47;;;;;;;12.23;11.33;;;;;;;0.18;54.20;93667.19;5037988;28;20210;-80
2022/01/18 13:46:26;;;;;;;11.13;10.50;;;;;;;0.67;53.68;93662.63;5037072;28;20418;-78
2022/01/18 13:49:13;;;;;;;12.33;11.40;;;;;;;0.51;54.02;93665.56;5035892;28;20194;-78
2022/01/18 13:51:39;;;;;;;11.87;11.07;;;;;;;0.41;52.88;93649.72;5040838;28;20218;-77
2022/01/18 13:54:08;;;;;;;15.30;12.03;;;;;;;0.17;52.00;93652.78;5019506;28;20183;-77
2022/01/18 13:56:45;;;;;;;13.13;12.10;;;;;;;0.16;52.35;93665.81;5033108;28;20218;-76
2022/01/18 13:59:11;;;;;;;12.47;11.67;;;;;;;0.03;52.47;93617.75;5051166;28;20183;-76
2022/01/18 14:01:41;;;;;;;11.43;10.73;;;;;;;0.16;52.18;93660.66;5035078;28;20245;-77
2022/01/18 14:04:19;;;;;;;11.60;11.00;;;;;;;0.12;52.54;93680.78;5035084;28;20201;-73
2022/01/18 14:06:46;;;;;;;12.23;11.23;;;;;;;0.65;54.01;93680.03;5033747;28;20248;-75
2022/01/18 14:09:13;;;;;;;12.80;11.73;;;;;;;0.28;54.33;93664.28;5018316;28;20263;-76
2022/01/18 14:11:47;;;;;;;16.40;13.17;;;;;;;0.04;54.34;93652.69;5037818;28;20210;-76
2022/01/18 14:14:21;;;;;;;12.80;11.80;;;;;;;-0.02;55.74;93684.25;5031734;28;20198;-72
2022/01/18 14:16:49;;;;;;;13.33;11.87;;;;;;;-0.20;55.20;93689.06;5034284;28;20231;-77
2022/01/18 14:19:30;;;;;;;11.87;10.97;;;;;;;-0.31;55.79;93674.16;5036112;28;20220;-77
2022/01/18 14:21:59;;;;;;;12.80;11.53;;;;;;;-0.35;55.25;93678.91;5037218;28;20243;-75
2022/01/18 14:24:38;;;;;;;10.93;10.17;;;;;;;-0.39;54.91;93677.66;5035444;28;20280;-77
2022/01/18 14:27:07;;;;;;;13.83;12.13;;;;;;;-0.33;54.39;93682.06;5034246;28;20249;-74
2022/01/18 14:29:41;;;;;;;14.10;13.03;;;;;;;-0.37;54.93;93685.19;5032430;28;20198;-75
2022/01/18 14:32:12;;;;;;;13.27;12.00;;;;;;;-0.47;55.08;93675.25;5033394;28;20244;-73
2022/01/18 14:34:51;;;;;;;16.53;13.73;;;;;;;-0.48;54.97;93678.78;5036889;28;20190;-75
2022/01/18 14:37:18;;;;;;;14.23;12.90;;;;;;;-0.59;55.24;93688.78;5033893;28;20222;-73
2022/01/18 14:39:59;;;;;;;17.60;15.00;;;;;;;-0.55;58.26;93680.53;5036792;28;20195;-75
2022/01/18 14:42:29;;;;;;;20.80;15.47;;;;;;;-0.67;56.43;93683.78;5033112;28;20234;-74
2022/01/18 14:45:02;;;;;;;18.63;16.67;;;;;;;-0.64;56.54;93689.31;5030879;28;20201;-72
2022/01/18 14:47:27;;;;;;;14.00;12.63;;;;;;;-0.62;55.99;93691.69;5034731;28;20349;-76
2022/01/18 14:50:08;;;;;;;14.23;13.20;;;;;;;-0.64;56.65;93681.63;5034483;28;20209;-77
2022/01/18 14:52:34;;;;;;;12.57;10.47;;;;;;;-0.61;55.82;93688.16;5035144;28;20245;-78
2022/01/18 14:55:00;;;;;;;13.70;12.70;;;;;;;-0.73;56.31;93669.91;5034092;28;20198;-76
2022/01/18 14:57:26;;;;;;;14.50;13.50;;;;;;;-0.77;55.36;93683.28;5031777;28;20229;-78
2022/01/18 14:59:52;;;;;;;12.63;11.53;;;;;;;-0.85;55.78;93671.38;5035972;28;20178;-78
2022/01/18 15:02:17;;;;;;;13.00;11.87;;;;;;;-0.96;56.16;93642.88;5033059;28;20225;-75
2022/01/18 15:04:43;;;;;;;15.80;11.83;;;;;;;-0.90;55.85;93662.69;5034552;28;20210;-76
2022/01/18 15:07:09;;;;;;;12.90;12.00;;;;;;;-0.66;57.11;93685.34;5018369;28;20242;-76
2022/01/18 15:09:35;;;;;;;11.23;10.50;;;;;;;-0.89;57.60;93659.13;5018202;28;20936;-77
2022/01/18 15:12:02;;;;;;;12.43;11.43;;;;;;;-0.90;56.38;93686.50;5033393;28;20280;-78
2022/01/18 15:14:28;;;;;;;12.87;11.70;;;;;;;-0.74;59.07;93677.78;5033762;28;20250;-77
2022/01/18 15:16:55;;;;;;;24.90;15.53;;;;;;;-0.61;59.25;93672.78;5036394;28;20254;-80
2022/01/18 15:19:20;;;;;;;12.60;11.60;;;;;;;-0.43;58.96;93685.94;5033697;28;20225;-77
2022/01/18 15:21:46;;;;;;;13.47;12.37;;;;;;;-0.76;56.07;93664.34;5034380;28;20297;-77
2022/01/18 15:24:11;;;;;;;11.00;10.00;;;;;;;-0.96;55.38;93661.63;5035820;28;20257;-77
2022/01/18 15:26:37;;;;;;;11.00;10.17;;;;;;;-1.09;55.99;93653.03;5033626;28;20229;-72
2022/01/18 15:29:03;;;;;;;11.37;10.60;;;;;;;-0.95;56.42;93695.75;5041772;28;20186;-72
2022/01/18 15:31:28;;;;;;;11.50;10.70;;;;;;;-1.38;56.00;93624.94;5038968;28;20225;-74
2022/01/18 15:33:53;;;;;;;12.17;11.33;;;;;;;-1.03;56.59;93683.03;5042384;28;20182;-74
2022/01/18 15:36:20;;;;;;;11.90;10.93;;;;;;;-1.08;55.74;93680.22;5040563;28;20305;-74
2022/01/18 15:38:46;;;;;;;11.17;10.37;;;;;;;-1.02;57.41;93671.81;5039631;28;20217;-75
2022/01/18 15:41:12;;;;;;;12.63;11.83;;;;;;;-1.06;55.59;93684.19;5040489;28;20233;-74
2022/01/18 15:43:38;;;;;;;13.87;12.83;;;;;;;-0.93;56.76;93679.19;5040934;28;20199;-74
2022/01/18 15:46:05;;;;;;;14.97;13.77;;;;;;;-1.25;55.94;93660.94;5036328;28;20223;-76
2022/01/18 15:48:31;;;;;;;12.30;11.30;;;;;;;-1.03;58.52;93688.16;5040364;28;20190;-76
2022/01/18 15:50:57;;;;;;;14.33;13.40;;;;;;;-1.11;54.88;93696.78;5039720;28;20242;-76
2022/01/18 15:53:23;;;;;;;29.67;19.43;;;;;;;-1.09;54.89;93715.28;5041756;28;20209;-75
2022/01/18 15:55:48;;;;;;;25.43;19.57;;;;;;;-1.12;55.78;93710.53;5038090;28;20239;-74
2022/01/18 15:58:15;;;;;;;13.53;12.43;;;;;;;-1.16;56.90;93722.13;5040388;28;20198;-74
2022/01/18 16:00:43;;;;;;;13.97;12.87;;;;;;;-1.28;55.74;93694.59;5038995;28;20254;-74
2022/01/18 16:03:10;;;;;;;12.20;11.00;;;;;;;-1.23;56.23;93711.00;5035708;28;20186;-75
2022/01/18 16:05:37;;;;;;;13.77;12.83;;;;;;;-1.11;56.41;93719.03;5038408;28;20257;-75
2022/01/18 16:08:06;;;;;;;13.50;12.37;;;;;;;-1.11;57.61;93717.25;5039728;28;20193;-74
2022/01/18 16:10:32;;;;;;;12.73;11.73;;;;;;;-1.35;55.44;93688.63;5037892;28;20166;-75
2022/01/18 16:12:58;;;;;;;13.03;11.37;;;;;;;-1.42;56.98;93698.78;5040472;28;20205;-75
2022/01/18 16:15:27;;;;;;;12.20;11.50;;;;;;;-1.40;56.30;93698.59;5037061;28;20217;-75
2022/01/18 16:17:54;;;;;;;12.00;11.00;;;;;;;-1.32;57.13;93729.25;5041768;28;20193;-73
2022/01/18 16:20:20;;;;;;;14.00;12.90;;;;;;;-1.30;58.89;93720.41;5039354;28;20209;-74
2022/01/18 16:22:46;;;;;;;12.97;11.93;;;;;;;-1.25;59.17;93725.78;5039044;28;20197;-72
2022/01/18 16:25:12;;;;;;;12.93;12.13;;;;;;;-1.21;58.73;93731.31;5024922;28;20210;-73
2022/01/18 16:27:39;;;;;;;13.50;12.47;;;;;;;-1.20;58.17;93741.41;5037434;28;20245;-74
2022/01/18 16:30:05;;;;;;;12.53;11.43;;;;;;;-1.46;58.06;93717.25;5036465;28;21048;-74
2022/01/18 16:32:31;;;;;;;11.43;10.70;;;;;;;-1.35;58.44;93744.97;5040199;28;20282;-72
2022/01/18 16:34:57;;;;;;;12.23;11.40;;;;;;;-1.33;57.89;93748.13;5036499;28;20266;-76
2022/01/18 16:37:23;;;;;;;12.60;11.63;;;;;;;-1.33;59.15;93753.25;5038631;28;20248;-76
2022/01/18 16:39:49;;;;;;;12.83;11.83;;;;;;;-1.06;62.05;93766.16;5034215;28;20191;-76
2022/01/18 16:42:14;;;;;;;13.97;12.87;;;;;;;-1.42;58.46;93739.75;5033714;28;20231;-76
2022/01/18 16:47:07;;;;;;;16.07;12.33;;;;;;;-1.18;58.47;93777.09;4981491;28;20219;-76
2022/01/18 16:49:34;;;;;;;13.53;12.20;;;;;;;-1.46;60.70;93751.31;4974762;28;20181;-75
2022/01/18 16:51:59;;;;;;;11.17;10.47;;;;;;;-1.48;58.73;93768.66;4990790;28;20238;-75
2022/01/18 16:54:26;;;;;;;16.87;15.77;;;;;;;-1.75;58.80;93748.78;4990020;28;20738;-76
2022/01/18 16:56:51;;;;;;;16.43;15.13;;;;;;;-1.47;58.72;93770.22;4991433;28;20239;-75
2022/01/18 16:59:17;;;;;;;12.43;11.37;;;;;;;-1.62;57.50;93765.09;4990120;28;20192;-76
2022/01/18 17:01:43;;;;;;;14.27;13.30;;;;;;;-1.49;58.81;93779.84;4990303;28;20229;-76
2022/01/18 17:04:08;;;;;;;15.07;13.97;;;;;;;-1.67;58.71;93767.38;4991582;28;20196;-76
2022/01/18 17:06:35;;;;;;;14.03;12.77;;;;;;;-1.57;59.52;93776.59;4989307;28;20223;-77
2022/01/18 17:09:01;;;;;;;12.87;11.80;;;;;;;-1.60;57.61;93772.59;4991777;28;20212;-74
2022/01/18 17:11:27;;;;;;;14.47;13.30;;;;;;;-1.66;57.90;93757.94;4991060;28;20251;-83
2022/01/18 17:13:53;;;;;;;14.47;13.50;;;;;;;-1.65;58.74;93760.34;4992655;28;20192;-79
2022/01/18 17:16:19;;;;;;;14.00;13.20;;;;;;;-1.82;57.70;93729.97;4991708;28;20235;-84
2022/01/18 17:18:44;;;;;;;11.90;11.20;;;;;;;-1.77;57.43;93746.41;4993554;28;20202;-80
2022/01/18 17:21:11;;;;;;;14.07;12.97;;;;;;;-1.60;58.22;93764.16;4991600;28;20295;-82
2022/01/18 17:23:37;;;;;;;12.73;11.70;;;;;;;-2.03;57.40;93717.91;4992170;28;20188;-81
2022/01/18 17:26:04;;;;;;;18.30;16.93;;;;;;;-1.83;57.73;93762.47;4991045;28;20219;-77
2022/01/18 17:28:29;;;;;;;13.70;12.60;;;;;;;-1.78;57.24;93765.28;4976722;28;20778;-77
2022/01/18 17:30:55;;;;;;;17.30;15.57;;;;;;;-1.90;57.89;93759.00;5007306;28;20228;-82
2022/01/18 17:33:22;;;;;;;13.40;12.30;;;;;;;-2.02;57.77;93739.94;4991441;28;20196;-80
2022/01/18 17:35:48;;;;;;;13.90;12.73;;;;;;;-1.84;57.79;93789.00;4991282;28;21932;-74
2022/01/18 17:38:14;;;;;;;13.20;12.13;;;;;;;-1.78;61.17;93780.66;4991748;28;20206;-80
2022/01/18 17:40:44;;;;;;;12.37;11.67;;;;;;;-2.03;57.92;93766.50;4991551;28;20231;-81
2022/01/18 17:43:15;;;;;;;13.47;12.53;;;;;;;-1.85;57.81;93792.53;4993169;28;20207;-78
2022/01/18 17:45:44;;;;;;;15.43;12.40;;;;;;;-1.83;57.57;93780.38;4990565;28;20291;-83
2022/01/18 17:48:10;;;;;;;15.60;12.00;;;;;;;-1.80;58.29;93792.81;4991067;28;20184;-77
2022/01/18 17:50:39;;;;;;;13.87;12.83;;;;;;;-1.78;59.12;93790.88;4990546;28;20227;-75
2022/01/18 17:53:05;;;;;;;14.27;13.40;;;;;;;-1.76;60.56;93811.19;4991686;28;20275;-75
2022/01/18 17:55:32;;;;;;;14.23;13.00;;;;;;;-1.68;59.01;93806.75;4988720;28;20250;-74
2022/01/18 17:57:57;;;;;;;15.43;14.40;;;;;;;-1.80;59.00;93803.06;4992588;28;20184;-74
2022/01/18 18:00:24;;;;;;;13.73;12.50;;;;;;;-1.65;60.54;93806.41;4990780;28;20228;-76
2022/01/18 18:02:50;;;;;;;14.70;12.70;;;;;;;-1.91;58.95;93808.59;4990203;28;20212;-76
2022/01/18 18:05:16;;;;;;;13.07;11.73;;;;;;;-1.87;60.72;93819.28;4990509;28;20270;-78
2022/01/18 18:07:41;;;;;;;13.53;12.40;;;;;;;-2.02;60.69;93816.69;4990237;28;20207;-79
2022/01/18 18:10:10;;;;;;;11.83;11.03;;;;;;;-2.03;60.45;93827.91;4972123;28;20200;-79
2022/01/18 18:12:38;;;;;;;13.77;12.83;;;;;;;-2.12;60.82;93818.66;5006344;28;20283;-74
2022/01/18 18:15:05;;;;;;;13.10;11.93;;;;;;;-2.04;62.51;93826.28;4990930;28;20188;-76
2022/01/18 18:17:31;;;;;;;13.60;12.57;;;;;;;-2.08;60.86;93830.16;4990408;28;20231;-76
2022/01/18 18:19:56;;;;;;;14.70;12.30;;;;;;;-2.36;61.35;93820.63;4990432;28;20192;-74
2022/01/18 18:22:21;;;;;;;13.63;12.37;;;;;;;-2.31;61.76;93821.72;4990641;28;20279;-76
2022/01/18 18:24:49;;;;;;;16.07;14.60;;;;;;;-2.13;62.08;93854.66;4990036;28;20199;-76
2022/01/18 18:27:14;;;;;;;14.07;13.17;;;;;;;-2.18;61.76;93870.50;4989365;28;20231;-76
2022/01/18 18:29:40;;;;;;;15.20;13.83;;;;;;;-2.28;61.69;93882.75;4989743;28;20187;-75
2022/01/18 18:32:06;;;;;;;13.07;11.97;;;;;;;-2.28;61.82;93884.50;4989528;28;20238;-77
2022/01/18 18:34:31;;;;;;;13.40;12.47;;;;;;;-2.27;63.24;93889.44;4990387;28;20215;-77
2022/01/18 18:36:57;;;;;;;12.97;11.67;;;;;;;-2.37;61.97;93878.66;4973053;28;20319;-76
2022/01/18 18:39:26;;;;;;;11.57;10.70;;;;;;;-2.25;62.79;93879.03;4991934;28;20198;-75
2022/01/18 18:42:50;;;;;;;13.97;12.77;;;;;;;-2.35;62.99;93868.25;4989415;28;20224;-76
2022/01/18 18:44:39;;;;;;;13.80;12.60;;;;;;;-2.24;62.40;93896.00;4986521;28;21003;-77
2022/01/18 18:47:05;;;;;;;13.87;12.57;;;;;;;-2.24;63.04;93901.88;4974810;28;21441;-78
2022/01/18 18:49:32;;;;;;;13.90;12.80;;;;;;;-2.21;63.86;93896.44;4970613;29;20196;-83
2022/01/18 18:52:01;;;;;;;13.87;12.10;;;;;;;-2.22;63.64;93920.44;4983517;28;20232;-83
2022/01/18 18:54:27;;;;;;;12.63;11.83;;;;;;;-2.52;62.86;93882.13;4991161;28;20228;-84